createdAt,value
2022-11-24T00:02:28.330Z,98776.57
2022-11-24T00:05:17.942Z,98779.15
2022-11-24T00:08:07.571Z,98779.55
2022-11-24T00:11:02.208Z,98783.67
2022-11-24T00:13:52.271Z,98785.07
2022-11-24T00:16:42.205Z,98788.66
2022-11-24T00:19:31.906Z,98789.23
2022-11-24T00:22:21.520Z,98798.61
2022-11-24T00:25:14.280Z,98802.38
2022-11-24T00:28:03.949Z,98804.00
2022-11-24T00:30:53.689Z,98812.06
2022-11-24T00:33:43.211Z,98824.58
2022-11-24T00:36:34.793Z,98831.50
2022-11-24T00:39:24.330Z,98835.91
2022-11-24T00:42:14.273Z,98830.08
2022-11-24T00:45:13.137Z,98837.96
2022-11-24T00:48:03.709Z,98843.08
2022-11-24T00:51:01.312Z,98852.30
2022-11-24T00:53:50.975Z,98849.21
2022-11-24T00:56:41.436Z,98860.27
2022-11-24T00:59:32.123Z,98853.45
2022-11-24T01:02:22.552Z,98859.66
2022-11-24T01:05:12.783Z,98865.36
2022-11-24T01:08:03.114Z,98869.84
2022-11-24T01:10:52.083Z,98871.83
2022-11-24T01:13:43.396Z,98877.87
2022-11-24T01:16:35.376Z,98888.43
2022-11-24T01:19:25.596Z,98899.20
2022-11-24T01:22:18.243Z,98907.60
2022-11-24T01:25:10.088Z,98908.71
2022-11-24T01:27:59.264Z,98911.91
2022-11-24T01:30:58.148Z,98914.77
2022-11-24T01:33:47.716Z,98919.38
2022-11-24T01:36:37.387Z,98920.65
2022-11-24T01:39:27.034Z,98922.89
2022-11-24T01:42:16.678Z,98923.54
2022-11-24T01:45:36.727Z,98926.35
2022-11-24T01:48:30.312Z,98932.02
2022-11-24T01:51:23.802Z,98922.80
2022-11-24T01:54:16.284Z,98922.65
2022-11-24T01:57:11.097Z,98920.75
2022-11-24T02:00:06.353Z,98916.08
2022-11-24T02:03:03.147Z,98910.23
2022-11-24T02:05:59.061Z,98915.31
2022-11-24T02:08:53.140Z,98918.91
2022-11-24T02:11:43.732Z,98919.17
2022-11-24T02:14:36.343Z,98926.81
2022-11-24T02:17:25.648Z,98928.45
2022-11-24T02:20:17.171Z,98925.27
2022-11-24T02:23:17.172Z,98929.41
2022-11-24T02:26:17.634Z,98923.97
2022-11-24T02:29:07.143Z,98925.98
2022-11-24T02:32:02.016Z,98918.39
2022-11-24T02:34:59.703Z,98923.55
2022-11-24T02:37:49.051Z,98925.89
2022-11-24T02:40:39.932Z,98935.10
2022-11-24T02:43:34.607Z,98937.71
2022-11-24T02:46:24.456Z,98943.80
2022-11-24T02:49:15.160Z,98933.77
2022-11-24T02:52:05.672Z,98927.05
2022-11-24T02:54:55.140Z,98935.27
2022-11-24T02:57:44.585Z,98934.08
2022-11-24T03:00:34.032Z,98931.62
2022-11-24T03:03:24.241Z,98926.92
2022-11-24T03:06:13.943Z,98927.91
2022-11-24T03:09:03.815Z,98918.72
2022-11-24T03:11:53.351Z,98919.46
2022-11-24T03:14:42.891Z,98929.60
2022-11-24T03:17:32.527Z,98936.56
2022-11-24T03:20:22.450Z,98940.16
2022-11-24T03:23:12.493Z,98935.38
2022-11-24T03:26:09.815Z,98929.05
2022-11-24T03:28:59.025Z,98935.88
2022-11-24T03:31:48.653Z,98937.90
2022-11-24T03:34:38.104Z,98935.90
2022-11-24T03:37:27.890Z,98924.31
2022-11-24T03:40:18.389Z,98920.23
2022-11-24T03:43:10.179Z,98911.11
2022-11-24T03:45:59.827Z,98911.55
2022-11-24T03:48:49.449Z,98910.84
2022-11-24T03:51:39.006Z,98913.79
2022-11-24T03:54:28.471Z,98910.23
2022-11-24T03:57:18.078Z,98910.33
2022-11-24T04:00:11.348Z,98909.32
2022-11-24T04:03:00.637Z,98904.75
2022-11-24T04:05:50.204Z,98917.15
2022-11-24T04:08:39.769Z,98913.98
2022-11-24T04:11:59.151Z,98915.60
2022-11-24T04:14:48.921Z,98924.19
2022-11-24T04:17:38.552Z,98924.04
2022-11-24T04:20:28.118Z,98922.64
2022-11-24T04:23:18.031Z,98927.34
2022-11-24T04:26:07.741Z,98926.61
2022-11-24T04:28:57.419Z,98935.05
2022-11-24T04:31:48.425Z,98940.39
2022-11-24T04:34:38.628Z,98946.27
2022-11-24T04:37:28.436Z,98936.94
2022-11-24T04:40:19.170Z,98944.05
2022-11-24T04:43:11.577Z,98938.51
2022-11-24T04:46:02.181Z,98939.63
2022-11-24T04:48:51.543Z,98929.89
2022-11-24T04:51:42.763Z,98938.44
2022-11-24T04:54:32.924Z,98934.37
2022-11-24T04:57:23.141Z,98934.80
2022-11-24T05:00:16.760Z,98943.27
2022-11-24T05:03:06.917Z,98935.85
2022-11-24T05:05:59.696Z,98925.23
2022-11-24T05:08:50.577Z,98914.89
2022-11-24T05:11:40.434Z,98912.05
2022-11-24T05:14:30.105Z,98900.33
2022-11-24T05:17:20.700Z,98901.23
2022-11-24T05:20:11.107Z,98905.65
2022-11-24T05:23:02.732Z,98907.43
2022-11-24T05:25:52.429Z,98906.42
2022-11-24T05:28:42.316Z,98899.29
2022-11-24T05:31:32.018Z,98890.25
2022-11-24T05:34:21.703Z,98887.54
2022-11-24T05:37:11.357Z,98881.86
2022-11-24T05:40:00.943Z,98880.73
2022-11-24T05:42:50.541Z,98868.24
2022-11-24T05:45:40.273Z,98858.66
2022-11-24T05:48:29.885Z,98843.04
2022-11-24T05:51:19.504Z,98827.67
2022-11-24T05:54:09.256Z,98824.12
2022-11-24T05:56:59.023Z,98837.72
2022-11-24T05:59:48.786Z,98830.55
2022-11-24T06:02:39.033Z,98824.22
2022-11-24T06:05:29.885Z,98822.52
2022-11-24T06:08:19.484Z,98822.15
2022-11-24T06:11:22.974Z,98816.00
2022-11-24T06:14:12.957Z,98810.90
2022-11-24T06:17:04.267Z,98795.00
2022-11-24T06:19:54.019Z,98789.52
2022-11-24T06:22:43.631Z,98785.27
2022-11-24T06:25:33.377Z,98780.66
2022-11-24T06:28:27.181Z,98770.04
2022-11-24T06:31:19.787Z,98760.91
2022-11-24T06:34:11.132Z,98760.49
2022-11-24T06:37:02.901Z,98756.07
2022-11-24T06:39:52.760Z,98752.73
2022-11-24T06:42:42.409Z,98755.17
2022-11-24T06:45:33.332Z,98759.44
2022-11-24T06:48:23.013Z,98755.28
2022-11-24T06:51:13.406Z,98742.25
2022-11-24T06:54:07.790Z,98730.27
2022-11-24T06:56:58.627Z,98711.77
2022-11-24T06:59:48.948Z,98695.32
2022-11-24T07:02:45.452Z,98691.70
2022-11-24T07:10:08.221Z,98683.19
2022-11-24T07:13:20.302Z,98668.73
2022-11-24T07:16:18.357Z,98670.62
2022-11-24T07:19:09.244Z,98676.05
2022-11-24T07:21:59.028Z,98673.55
2022-11-24T07:24:48.662Z,98649.68
2022-11-24T07:27:38.607Z,98636.75
2022-11-24T07:30:28.855Z,98634.34
2022-11-24T07:33:20.863Z,98633.22
2022-11-24T07:36:10.888Z,98621.36
2022-11-24T07:39:05.805Z,98613.52
2022-11-24T07:41:55.609Z,98602.30
2022-11-24T07:44:45.705Z,98588.10
2022-11-24T07:47:42.297Z,98587.98
2022-11-24T07:50:35.160Z,98582.13
2022-11-24T07:53:34.578Z,98575.98
2022-11-24T07:57:12.213Z,98558.48
2022-11-24T08:25:23.952Z,98474.26
2022-11-24T08:28:13.719Z,98456.69
2022-11-24T08:31:04.573Z,98449.65
2022-11-24T08:33:56.323Z,98440.91
2022-11-24T08:36:46.405Z,98432.23
2022-11-24T08:39:36.293Z,98425.99
2022-11-24T08:42:29.706Z,98428.01
2022-11-24T08:45:21.923Z,98442.48
2022-11-24T08:48:12.860Z,98432.57
2022-11-24T08:51:07.967Z,98449.41
2022-11-24T08:53:59.146Z,98468.48
2022-11-24T08:56:51.830Z,98482.35
2022-11-24T08:59:41.878Z,98477.60
2022-11-24T09:02:42.589Z,98490.10
2022-11-24T09:05:53.425Z,98480.29
2022-11-24T09:08:59.960Z,98482.61
2022-11-24T09:15:39.544Z,98450.86
2022-11-24T09:27:46.798Z,98407.45
2022-11-24T09:34:43.820Z,98393.16
2022-11-24T09:37:46.805Z,98401.36
2022-11-24T09:37:53.414Z,98385.88
2022-11-24T09:40:47.336Z,98381.97
2022-11-24T09:43:58.914Z,98364.35
2022-11-24T09:47:19.418Z,98349.77
2022-11-24T09:55:16.544Z,98353.29
2022-11-24T09:58:40.266Z,98349.86
2022-11-24T10:01:47.812Z,98359.11
2022-11-24T10:18:33.688Z,98388.70
2022-11-24T10:21:54.770Z,98397.71
2022-11-24T10:25:22.814Z,98405.18
2022-11-24T10:28:19.928Z,98409.45
2022-11-24T10:31:48.408Z,98411.98
2022-11-24T10:34:45.979Z,98419.86
2022-11-24T10:37:50.243Z,98427.27
2022-11-24T10:41:00.935Z,98425.16
2022-11-24T10:43:52.219Z,98426.98
2022-11-24T10:46:44.690Z,98427.19
2022-11-24T10:49:35.087Z,98426.36
2022-11-24T10:52:29.771Z,98429.36
2022-11-24T10:55:58.254Z,98426.74
2022-11-24T10:58:48.297Z,98418.27
2022-11-24T11:01:38.598Z,98419.34
2022-11-24T11:04:28.770Z,98415.41
2022-11-24T11:07:20.843Z,98431.06
2022-11-24T11:10:36.274Z,98442.77
2022-11-24T11:13:28.633Z,98437.55
2022-11-24T11:16:25.878Z,98432.95
2022-11-24T11:19:48.483Z,98435.70
2022-11-24T11:22:46.414Z,98446.54
2022-11-24T11:25:37.665Z,98457.13
2022-11-24T11:28:30.574Z,98463.45
2022-11-24T11:31:22.790Z,98452.91
2022-11-24T11:34:26.662Z,98452.20
2022-11-24T11:37:20.060Z,98452.30
2022-11-24T11:40:15.832Z,98462.36
2022-11-24T11:43:19.169Z,98459.27
2022-11-24T11:46:27.186Z,98464.45
2022-11-24T11:49:17.165Z,98465.73
2022-11-24T11:52:48.112Z,98465.85
2022-11-24T11:56:04.465Z,98460.65
2022-11-24T11:59:23.476Z,98460.89
2022-11-24T12:03:03.190Z,98466.98
2022-11-24T12:06:02.433Z,98464.34
2022-11-24T12:09:23.674Z,98468.73
2022-11-24T12:12:32.650Z,98466.52
2022-11-24T12:15:27.286Z,98463.14
2022-11-24T12:18:56.635Z,98460.22
2022-11-24T12:22:14.875Z,98465.10
2022-11-24T12:25:26.849Z,98467.75
2022-11-24T12:28:46.104Z,98481.86
2022-11-24T12:31:45.449Z,98487.52
2022-11-24T12:34:54.156Z,98487.17
2022-11-24T12:37:58.827Z,98483.48
2022-11-24T12:52:20.513Z,98475.89
2022-11-24T12:59:53.662Z,98462.19
2022-11-24T13:03:14.192Z,98465.48
2022-11-24T13:06:13.097Z,98465.75
2022-11-24T13:09:09.059Z,98463.27
2022-11-24T13:12:11.492Z,98456.65
2022-11-24T13:15:01.057Z,98450.75
2022-11-24T13:18:06.774Z,98454.25
2022-11-24T13:21:00.258Z,98452.45
2022-11-24T13:23:57.513Z,98461.41
2022-11-24T13:26:48.992Z,98464.65
2022-11-24T13:29:40.011Z,98476.71
2022-11-24T13:33:02.695Z,98484.27
2022-11-24T13:36:29.798Z,98487.06
2022-11-24T13:39:21.599Z,98490.54
2022-11-24T13:42:43.428Z,98487.46
2022-11-24T13:45:50.506Z,98495.23
2022-11-24T13:49:01.791Z,98496.23
2022-11-24T13:51:56.351Z,98489.56
2022-11-24T13:54:45.654Z,98492.53
2022-11-24T13:57:36.638Z,98494.49
2022-11-24T14:00:28.767Z,98505.89
2022-11-24T14:03:23.014Z,98503.40
2022-11-24T14:06:25.847Z,98499.63
2022-11-24T14:09:27.173Z,98505.73
2022-11-24T14:12:19.677Z,98502.28
2022-11-24T14:15:24.177Z,98506.41
2022-11-24T14:18:22.104Z,98501.16
2022-11-24T14:21:24.308Z,98493.27
2022-11-24T14:24:23.362Z,98488.98
2022-11-24T14:27:16.992Z,98491.71
2022-11-24T14:30:19.913Z,98495.41
2022-11-24T14:33:12.968Z,98498.41
2022-11-24T14:36:02.211Z,98501.02
2022-11-24T14:38:52.132Z,98500.34
2022-11-24T14:41:43.084Z,98501.67
2022-11-24T14:44:34.921Z,98504.08
2022-11-24T14:47:31.200Z,98506.84
2022-11-24T14:50:23.823Z,98506.23
2022-11-24T14:53:21.944Z,98513.02
2022-11-24T14:56:26.940Z,98528.06
2022-11-24T14:59:23.677Z,98538.17
2022-11-24T15:02:40.325Z,98538.13
2022-11-24T15:05:53.677Z,98542.90
2022-11-24T15:08:49.324Z,98544.80
2022-11-24T15:11:38.754Z,98544.70
2022-11-24T15:14:36.983Z,98547.40
2022-11-24T15:17:29.602Z,98549.65
2022-11-24T15:20:25.122Z,98558.48
2022-11-24T15:23:26.876Z,98592.70
2022-11-24T15:26:34.226Z,98623.89
2022-11-24T15:29:28.719Z,98677.21
2022-11-24T15:32:18.738Z,98701.06
2022-11-24T15:35:12.015Z,98699.92
2022-11-24T15:38:01.558Z,98667.38
2022-11-24T15:41:19.876Z,98608.92
2022-11-24T15:44:12.494Z,98595.88
2022-11-24T15:47:02.325Z,98602.95
2022-11-24T15:49:52.124Z,98597.93
2022-11-24T15:52:42.302Z,98590.33
2022-11-24T15:55:32.584Z,98584.92
2022-11-24T15:58:22.452Z,98590.33
2022-11-24T16:01:16.092Z,98600.37
2022-11-24T16:04:28.948Z,98599.77
2022-11-24T16:07:37.621Z,98606.34
2022-11-24T16:15:41.814Z,98604.68
2022-11-24T16:19:42.149Z,98601.23
2022-11-24T16:31:53.658Z,98605.72
2022-11-24T16:38:00.281Z,98612.23
2022-11-24T16:40:53.042Z,98609.69
2022-11-24T16:43:58.499Z,98604.75
2022-11-24T16:46:50.539Z,98603.84
2022-11-24T16:50:08.079Z,98609.37
2022-11-24T16:53:18.248Z,98604.41
2022-11-24T16:57:25.092Z,98601.10
2022-11-24T17:00:24.912Z,98603.58
2022-11-24T17:03:24.219Z,98590.41
2022-11-24T17:06:17.809Z,98594.77
2022-11-24T17:09:08.601Z,98594.23
2022-11-24T17:11:56.924Z,98602.06
2022-11-24T17:15:09.483Z,98600.45
2022-11-24T17:18:56.025Z,98599.27
2022-11-24T17:22:06.862Z,98599.47
2022-11-24T17:33:03.677Z,98596.86
2022-11-24T17:36:04.610Z,98590.13
2022-11-24T17:39:21.801Z,98583.04
2022-11-24T17:42:17.667Z,98572.50
2022-11-24T17:45:11.753Z,98565.19
2022-11-24T17:48:13.809Z,98562.36
2022-11-24T17:51:50.787Z,98560.05
2022-11-24T17:54:56.545Z,98568.90
2022-11-24T18:02:25.011Z,98575.05
2022-11-24T18:05:22.606Z,98574.07
2022-11-24T18:08:56.752Z,98577.81
2022-11-24T18:11:48.926Z,98589.70
2022-11-24T18:14:40.954Z,98586.29
2022-11-24T18:17:32.967Z,98590.45
2022-11-24T18:20:26.682Z,98583.65
2022-11-24T18:23:18.783Z,98584.24
2022-11-24T18:26:12.680Z,98587.59
2022-11-24T18:29:05.171Z,98589.97
2022-11-24T18:31:57.346Z,98597.59
2022-11-24T18:34:51.202Z,98600.05
2022-11-24T18:37:44.812Z,98602.98
2022-11-24T18:40:39.153Z,98603.46
2022-11-24T18:43:32.455Z,98605.37
2022-11-24T18:46:24.662Z,98599.26
2022-11-24T18:49:16.826Z,98598.06
2022-11-24T18:52:09.057Z,98597.08
2022-11-24T18:55:04.058Z,98581.36
2022-11-24T18:57:57.603Z,98571.81
2022-11-24T19:00:49.351Z,98562.44
2022-11-24T19:03:48.008Z,98558.59
2022-11-24T19:06:40.938Z,98561.58
2022-11-24T19:09:33.079Z,98563.82
2022-11-24T19:12:27.657Z,98565.45
2022-11-24T19:15:20.052Z,98566.80
2022-11-24T19:18:12.205Z,98572.58
2022-11-24T19:21:07.427Z,98559.14
2022-11-24T19:24:04.996Z,98553.11
2022-11-24T19:26:58.056Z,98553.69
2022-11-24T19:29:50.246Z,98559.05
2022-11-24T19:32:42.506Z,98564.86
2022-11-24T19:35:34.652Z,98565.69
2022-11-24T19:38:29.895Z,98570.26
2022-11-24T19:41:23.845Z,98573.05
2022-11-24T19:44:16.362Z,98576.79
2022-11-24T19:47:08.479Z,98585.54
2022-11-24T19:50:00.658Z,98592.60
2022-11-24T19:52:52.743Z,98601.45
2022-11-24T19:55:44.856Z,98610.38
2022-11-24T19:58:38.044Z,98623.01
2022-11-24T20:01:32.348Z,98641.85
2022-11-24T20:04:24.741Z,98650.77
2022-11-24T20:07:16.980Z,98668.05
2022-11-24T20:10:11.186Z,98674.56
2022-11-24T20:13:03.277Z,98677.03
2022-11-24T20:15:55.603Z,98681.74
2022-11-24T20:18:48.891Z,98684.23
2022-11-24T20:21:46.133Z,98691.33
2022-11-24T20:24:38.287Z,98701.54
2022-11-24T20:27:30.429Z,98711.91
2022-11-24T20:30:22.637Z,98728.91
2022-11-24T20:33:14.775Z,98738.15
2022-11-24T20:36:10.347Z,98750.33
2022-11-24T20:39:06.502Z,98768.48
2022-11-24T20:41:58.748Z,98779.79
2022-11-24T20:44:51.324Z,98786.67
2022-11-24T20:47:43.439Z,98793.84
2022-11-24T20:50:39.322Z,98802.68
2022-11-24T20:53:31.441Z,98812.98
2022-11-24T20:56:25.273Z,98819.29
2022-11-24T20:59:19.624Z,98830.72
2022-11-24T21:02:12.474Z,98843.63
2022-11-24T21:05:04.763Z,98852.76
2022-11-24T21:07:57.047Z,98855.38
2022-11-24T21:10:56.729Z,98869.34
2022-11-24T21:13:49.857Z,98887.55
2022-11-24T21:16:43.205Z,98896.10
2022-11-24T21:19:35.084Z,98907.45
2022-11-24T21:22:27.000Z,98923.25
2022-11-24T21:25:21.725Z,98934.55
2022-11-24T21:28:14.218Z,98943.84
2022-11-24T21:31:11.737Z,98956.28
2022-11-24T21:34:04.291Z,98965.55
2022-11-24T21:36:56.384Z,98973.02
2022-11-24T21:39:48.647Z,98980.95
2022-11-24T21:42:40.882Z,98994.60
2022-11-24T21:45:35.058Z,99005.21
2022-11-24T21:48:27.197Z,99020.61
2022-11-24T21:51:30.980Z,99023.97
2022-11-24T21:54:23.523Z,99039.23
2022-11-24T21:57:15.822Z,99051.96
2022-11-24T22:00:09.734Z,99059.67
2022-11-24T22:03:01.939Z,99071.38
2022-11-24T22:05:57.882Z,99087.09
2022-11-24T22:08:51.263Z,99103.10
2022-11-24T22:11:43.491Z,99112.88
2022-11-24T22:14:40.192Z,99120.86
2022-11-24T22:17:34.771Z,99127.17
2022-11-24T22:20:27.023Z,99137.17
2022-11-24T22:23:19.131Z,99149.06
2022-11-24T22:26:14.822Z,99161.38
2022-11-24T22:29:07.789Z,99173.18
2022-11-24T22:32:00.009Z,99191.52
2022-11-24T22:34:52.238Z,99199.89
2022-11-24T22:37:44.564Z,99205.96
2022-11-24T22:40:36.696Z,99214.19
2022-11-24T22:43:30.291Z,99224.52
2022-11-24T22:46:24.971Z,99234.79
2022-11-24T22:49:17.273Z,99245.34
2022-11-24T22:52:12.062Z,99256.80
2022-11-24T22:55:04.299Z,99269.16
2022-11-24T22:57:57.184Z,99274.77
2022-11-24T23:00:49.645Z,99286.04
2022-11-24T23:03:43.256Z,99296.42
2022-11-24T23:06:35.879Z,99312.30
2022-11-24T23:09:29.126Z,99326.20
2022-11-24T23:12:21.028Z,99331.35
2022-11-24T23:15:14.070Z,99340.33
2022-11-24T23:18:06.419Z,99347.27
2022-11-24T23:21:04.802Z,99354.02
2022-11-24T23:23:57.897Z,99364.48
2022-11-24T23:26:49.743Z,99373.47
2022-11-24T23:29:41.983Z,99388.92
2022-11-24T23:32:34.183Z,99391.39
2022-11-24T23:35:26.246Z,99397.70
2022-11-24T23:38:18.582Z,99406.00
2022-11-24T23:41:12.673Z,99409.80
2022-11-24T23:44:05.155Z,99415.80
2022-11-24T23:46:57.296Z,99419.45
2022-11-24T23:49:49.777Z,99420.88
2022-11-24T23:52:41.899Z,99433.45
2022-11-24T23:55:35.152Z,99443.98
2022-11-24T23:58:27.155Z,99449.14
